Time;durP1;ratioP1;P1;durP2;ratioP2;P2;SDS_P1;SDS_P2;PMS_P1;PMS_P2;Temp;Humidity;BMP_temperature;BMP_pressure;BME280_temperature;BME280_humidity;BME280_pressure;Samples;Min_cycle;Max_cycle;Signal;HPM_P1;HPM_P2
2022/09/11 00:01:08;;;;;;;24.48;20.65;;;15.40;99.90;;;;;;5077994;28;20222;-59
2022/09/11 00:03:35;;;;;;;29.40;21.75;;;15.40;99.90;;;;;;5089464;28;20050;-58
2022/09/11 00:06:02;;;;;;;27.60;22.17;;;15.30;99.90;;;;;;5089484;28;20399;-60
2022/09/11 00:08:30;;;;;;;25.27;20.55;;;15.30;99.90;;;;;;5088463;28;20043;-58
2022/09/11 00:11:03;;;;;;;30.95;22.08;;;15.30;99.90;;;;;;5092723;28;20093;-61
2022/09/11 00:13:30;;;;;;;28.10;20.90;;;15.30;99.90;;;;;;5091902;28;20481;-59
2022/09/11 00:15:56;;;;;;;23.15;18.85;;;15.30;99.90;;;;;;5093593;28;20071;-59
2022/09/11 00:18:22;;;;;;;34.17;17.55;;;15.20;99.90;;;;;;5079181;28;20040;-60
2022/09/11 00:20:53;;;;;;;18.58;16.23;;;15.20;99.90;;;;;;5073266;28;20033;-58
2022/09/11 00:23:20;;;;;;;36.50;15.52;;;15.20;99.90;;;;;;5086870;28;20040;-59
2022/09/11 00:25:46;;;;;;;33.72;14.68;;;15.20;99.90;;;;;;5094033;28;20378;-59
2022/09/11 00:28:14;;;;;;;14.57;12.98;;;15.10;99.90;;;;;;5092544;28;20397;-60
2022/09/11 00:30:42;;;;;;;14.43;13.02;;;15.10;99.90;;;;;;5092449;28;20028;-59
2022/09/11 00:33:09;;;;;;;17.45;14.00;;;15.00;99.90;;;;;;5092662;28;20504;-59
2022/09/11 00:35:34;;;;;;;13.63;12.30;;;15.00;99.90;;;;;;5092741;28;20327;-56
2022/09/11 00:38:00;;;;;;;17.65;15.45;;;15.00;99.90;;;;;;5095130;28;20040;-58
2022/09/11 00:40:25;;;;;;;19.70;15.10;;;15.00;99.90;;;;;;5074307;28;20051;-59
2022/09/11 00:42:52;;;;;;;20.83;15.80;;;15.00;99.90;;;;;;5092969;28;20036;-60
2022/09/11 00:45:24;;;;;;;20.15;15.55;;;15.00;99.90;;;;;;5096419;28;20489;-59
2022/09/11 00:47:52;;;;;;;20.10;16.58;;;15.00;99.90;;;;;;5094163;28;20119;-58
2022/09/11 00:50:22;;;;;;;21.75;17.92;;;14.90;99.90;;;;;;5085381;28;20045;-57
2022/09/11 00:52:55;;;;;;;27.60;20.70;;;14.90;99.90;;;;;;5100316;28;20232;-59
2022/09/11 00:55:26;;;;;;;25.98;21.10;;;14.80;99.90;;;;;;5097187;28;20032;-58
2022/09/11 00:57:59;;;;;;;27.50;20.38;;;14.80;99.90;;;;;;5111413;28;20060;-58
2022/09/11 01:00:24;;;;;;;25.58;21.13;;;14.80;99.90;;;;;;5088692;28;20144;-59
2022/09/11 01:02:52;;;;;;;24.55;19.92;;;14.80;99.90;;;;;;5105888;28;20395;-60
2022/09/11 01:05:21;;;;;;;32.08;22.23;;;14.80;99.90;;;;;;5112021;28;20048;-55
2022/09/11 01:07:49;;;;;;;26.00;19.92;;;14.70;99.90;;;;;;5110942;28;20027;-60
2022/09/11 01:10:15;;;;;;;25.15;19.10;;;14.70;99.90;;;;;;5098413;28;20488;-60
2022/09/11 01:13:09;;;;;;;29.13;22.20;;;14.80;99.90;;;;;;5088522;28;20033;-60
2022/09/11 01:16:04;;;;;;;27.58;21.08;;;14.70;99.90;;;;;;5093857;28;20039;-58
2022/09/11 01:18:40;;;;;;;24.33;19.10;;;14.80;99.90;;;;;;5110456;28;20047;-58
2022/09/11 01:21:51;;;;;;;78.33;17.47;;;14.70;99.90;;;;;;5094492;28;20078;-59
2022/09/11 01:24:39;;;;;;;21.50;13.85;;;14.70;99.90;;;;;;5091655;28;20516;-58
2022/09/11 01:27:19;;;;;;;43.67;13.60;;;14.60;99.90;;;;;;5092378;28;20032;-56
2022/09/11 01:29:54;;;;;;;122.40;14.35;;;14.60;99.90;;;;;;5090762;28;20036;-58
2022/09/11 01:32:31;;;;;;;27.98;12.27;;;14.50;99.90;;;;;;5088624;28;20040;-58
2022/09/11 01:35:04;;;;;;;10.60;9.52;;;14.50;99.90;;;;;;5073642;28;20078;-58
2022/09/11 01:37:41;;;;;;;11.45;9.55;;;14.40;99.90;;;;;;5090734;28;20349;-58
2022/09/11 01:40:23;;;;;;;;;;;14.30;99.90;;;;;;5093146;28;20044;-59
2022/09/11 01:42:51;;;;;;;10.52;9.50;;;14.30;99.90;;;;;;5084235;28;19920;-58
2022/09/11 01:45:18;;;;;;;10.07;7.75;;;14.30;99.90;;;;;;5096965;28;20032;-60
2022/09/11 01:47:48;;;;;;;8.70;7.80;;;14.20;99.90;;;;;;5110169;28;20118;-57
2022/09/11 01:50:15;;;;;;;9.65;8.70;;;14.20;99.90;;;;;;5109133;28;20424;-58
2022/09/11 01:52:50;;;;;;;10.82;9.07;;;14.20;99.90;;;;;;5073639;28;20032;-59
2022/09/11 01:55:24;;;;;;;12.20;10.23;;;14.20;99.90;;;;;;5077760;28;20115;-57
2022/09/11 01:58:06;;;;;;;27.60;11.68;;;14.20;99.90;;;;;;5090434;28;20242;-55
2022/09/11 02:00:36;;;;;;;25.23;14.75;;;14.20;99.90;;;;;;5091710;28;20040;-57
2022/09/11 02:03:13;;;;;;;16.55;14.70;;;14.20;99.90;;;;;;5088308;28;20408;-58
2022/09/11 02:06:04;;;;;;;53.05;16.98;;;14.20;99.90;;;;;;5090496;28;20044;-59
2022/09/11 02:08:48;;;;;;;18.55;16.08;;;14.20;99.90;;;;;;5088356;28;20086;-57
2022/09/11 02:11:15;;;;;;;20.73;17.90;;;14.20;99.90;;;;;;5089931;28;20055;-59
2022/09/11 02:14:16;;;;;;;21.33;17.85;;;14.20;99.90;;;;;;5074695;28;20044;-57
2022/09/11 02:17:10;;;;;;;21.33;19.02;;;14.20;99.90;;;;;;5071116;28;20075;-59
2022/09/11 02:19:37;;;;;;;39.42;19.35;;;14.30;99.90;;;;;;5069684;28;20132;-58
2022/09/11 02:22:04;;;;;;;57.75;20.42;;;14.30;99.90;;;;;;5075356;28;20097;-60
2022/09/11 02:24:29;;;;;;;29.02;17.63;;;14.30;99.90;;;;;;5081312;28;20043;-58
2022/09/11 02:27:02;;;;;;;110.03;19.08;;;14.30;99.90;;;;;;5091112;28;20039;-59
2022/09/11 02:29:28;;;;;;;27.08;17.23;;;14.30;99.90;;;;;;5091164;28;20131;-58
2022/09/11 02:31:54;;;;;;;20.10;17.27;;;14.30;99.90;;;;;;5090983;28;20123;-59
2022/09/11 02:34:29;;;;;;;58.42;17.92;;;14.30;99.90;;;;;;5090860;28;20461;-58
2022/09/11 02:37:10;;;;;;;149.93;21.92;;;14.30;99.90;;;;;;5091422;28;20039;-58
2022/09/11 02:39:54;;;;;;;39.05;18.67;;;14.30;99.90;;;;;;5091524;28;20054;-58
2022/09/11 02:42:55;;;;;;;58.90;18.10;;;14.20;99.90;;;;;;5091042;28;20040;-59
2022/09/11 02:45:34;;;;;;;85.13;19.08;;;14.20;99.90;;;;;;5089842;28;20408;-57
2022/09/11 02:48:05;;;;;;;100.88;19.63;;;14.20;99.90;;;;;;5102602;28;20219;-58
2022/09/11 02:50:47;;;;;;;25.95;17.23;;;14.20;99.90;;;;;;5091535;28;20036;-58
2022/09/11 02:53:50;;;;;;;95.95;17.67;;;14.20;99.90;;;;;;5069965;28;20037;-57
2022/09/11 02:56:41;;;;;;;104.80;17.85;;;14.10;99.90;;;;;;5081241;28;20127;-58
2022/09/11 02:59:16;;;;;;;18.98;16.08;;;14.10;99.90;;;;;;5091755;28;20058;-58
2022/09/11 03:01:47;;;;;;;66.55;18.00;;;14.10;99.90;;;;;;5076326;28;20050;-58
2022/09/11 03:04:14;;;;;;;108.80;19.75;;;14.10;99.90;;;;;;5089157;28;20400;-57
2022/09/11 03:06:41;;;;;;;83.15;20.08;;;14.10;99.90;;;;;;5091160;28;20032;-56
2022/09/11 03:09:08;;;;;;;38.42;16.67;;;14.10;99.90;;;;;;5090273;28;20047;-59
2022/09/11 03:11:34;;;;;;;;;;;14.10;99.90;;;;;;5090775;28;20111;-56
2022/09/11 03:14:00;;;;;;;263.20;21.63;;;14.10;99.90;;;;;;5089912;28;20350;-56
2022/09/11 03:16:26;;;;;;;157.05;17.50;;;14.10;99.90;;;;;;5088970;28;20097;-58
2022/09/11 03:18:51;;;;;;;173.50;18.80;;;14.00;99.90;;;;;;5091534;28;20040;-57
2022/09/11 03:21:17;;;;;;;78.15;14.88;;;13.90;99.90;;;;;;5110306;28;20070;-59
2022/09/11 03:23:43;;;;;;;;;;;13.90;99.90;;;;;;5109009;28;20044;-56
2022/09/11 03:26:09;;;;;;;79.15;15.02;;;13.90;99.90;;;;;;5101461;28;19916;-59
2022/09/11 03:28:34;;;;;;;235.60;18.50;;;13.80;99.90;;;;;;5091223;28;20028;-56
2022/09/11 03:31:00;;;;;;;51.45;14.05;;;13.80;99.90;;;;;;5089642;28;20065;-59
2022/09/11 03:33:26;;;;;;;123.40;18.23;;;13.80;99.90;;;;;;5089900;28;20520;-55
2022/09/11 03:35:52;;;;;;;245.18;20.50;;;13.70;99.90;;;;;;5089410;28;20216;-58
2022/09/11 03:38:18;;;;;;;134.13;16.13;;;13.70;99.90;;;;;;5092279;28;20024;-55
2022/09/11 03:40:44;;;;;;;139.52;17.48;;;13.70;99.90;;;;;;5083727;28;20039;-55
2022/09/11 03:43:11;;;;;;;167.10;17.90;;;13.70;99.90;;;;;;5089849;28;20041;-59
2022/09/11 03:45:37;;;;;;;197.73;19.17;;;13.60;99.90;;;;;;5092946;28;20861;-57
2022/09/11 03:48:03;;;;;;;;;;;13.60;99.90;;;;;;5094129;28;20051;-58
2022/09/11 03:50:28;;;;;;;111.20;16.60;;;13.50;99.90;;;;;;5094245;28;20172;-55
2022/09/11 03:52:54;;;;;;;15.35;13.63;;;13.50;99.90;;;;;;5093589;28;20036;-60
2022/09/11 03:55:21;;;;;;;60.38;15.73;;;13.50;99.90;;;;;;5086696;28;20098;-59
2022/09/11 03:57:47;;;;;;;69.25;16.05;;;13.50;99.90;;;;;;5074631;28;20069;-59
2022/09/11 04:00:12;;;;;;;42.33;15.07;;;13.50;99.90;;;;;;5073270;28;20557;-59
2022/09/11 04:02:38;;;;;;;45.05;15.57;;;13.50;99.90;;;;;;5073485;28;20132;-57
2022/09/11 04:05:04;;;;;;;98.05;17.13;;;13.50;99.90;;;;;;5073152;28;20127;-55
2022/09/11 04:07:30;;;;;;;21.52;15.38;;;13.50;99.90;;;;;;5076435;28;20120;-57
2022/09/11 04:09:56;;;;;;;45.83;15.88;;;13.50;99.90;;;;;;5093790;28;20408;-58
2022/09/11 04:12:21;;;;;;;22.05;15.60;;;13.50;99.90;;;;;;5093775;28;20036;-59
2022/09/11 04:14:49;;;;;;;15.73;14.23;;;13.50;99.90;;;;;;5092950;28;20511;-57
2022/09/11 04:17:14;;;;;;;17.13;15.10;;;13.50;99.90;;;;;;5094020;28;20040;-59
2022/09/11 04:19:40;;;;;;;45.55;18.13;;;13.60;99.90;;;;;;5092189;28;20058;-57
2022/09/11 04:22:06;;;;;;;17.13;15.43;;;13.60;99.90;;;;;;5096419;28;20489;-57
2022/09/11 04:24:31;;;;;;;16.02;14.55;;;13.60;99.90;;;;;;5113346;28;20289;-57
2022/09/11 04:26:59;;;;;;;25.58;15.30;;;13.60;99.90;;;;;;5112520;28;20055;-59
2022/09/11 04:29:25;;;;;;;17.20;15.43;;;13.60;99.90;;;;;;5094546;28;20427;-59
2022/09/11 04:31:51;;;;;;;;;;;13.60;99.90;;;;;;5089940;28;20033;-59
2022/09/11 04:34:18;;;;;;;16.77;15.18;;;13.60;99.90;;;;;;5072583;28;19916;-60
2022/09/11 04:36:44;;;;;;;16.50;14.98;;;13.60;99.90;;;;;;5089503;28;20115;-57
2022/09/11 04:39:10;;;;;;;16.02;14.63;;;13.60;99.90;;;;;;5093456;28;20173;-59
2022/09/11 04:41:35;;;;;;;15.70;14.20;;;13.60;99.90;;;;;;5101848;28;20036;-57
2022/09/11 04:44:01;;;;;;;15.15;13.55;;;13.50;99.90;;;;;;5091328;28;20374;-58
2022/09/11 04:46:27;;;;;;;21.55;14.40;;;13.50;99.90;;;;;;5101930;28;20036;-57
2022/09/11 04:48:54;;;;;;;21.90;14.00;;;13.50;99.90;;;;;;5104168;28;20031;-57
2022/09/11 04:51:29;;;;;;;16.33;14.70;;;13.50;99.90;;;;;;5093179;28;20036;-58
2022/09/11 04:53:58;;;;;;;14.98;13.57;;;13.50;99.90;;;;;;5088159;28;20072;-59
2022/09/11 04:56:28;;;;;;;16.92;14.00;;;13.50;99.90;;;;;;5094066;28;20040;-57
2022/09/11 04:59:02;;;;;;;16.00;14.23;;;13.50;99.90;;;;;;5092822;28;20119;-57
2022/09/11 05:01:30;;;;;;;14.38;13.07;;;13.40;99.90;;;;;;5091880;28;20036;-58
2022/09/11 05:03:56;;;;;;;15.13;13.55;;;13.40;99.90;;;;;;5108729;28;20115;-59
2022/09/11 05:06:21;;;;;;;15.55;14.05;;;13.40;99.90;;;;;;5095811;28;20182;-56
2022/09/11 05:08:47;;;;;;;15.50;14.00;;;13.40;99.90;;;;;;5092382;28;20032;-58
2022/09/11 05:11:18;;;;;;;15.27;13.88;;;13.40;99.90;;;;;;5081317;28;20508;-59
2022/09/11 05:13:44;;;;;;;14.23;12.82;;;13.30;99.90;;;;;;5085210;28;20043;-58
2022/09/11 05:16:12;;;;;;;23.87;13.63;;;13.40;99.90;;;;;;5081045;28;20040;-59
2022/09/11 05:18:39;;;;;;;14.88;12.70;;;13.40;99.90;;;;;;5092416;28;20081;-58
2022/09/11 05:21:13;;;;;;;14.88;12.77;;;13.40;99.90;;;;;;5091332;28;20484;-59
2022/09/11 05:23:39;;;;;;;14.98;13.65;;;13.40;99.90;;;;;;5093710;28;20074;-59
2022/09/11 05:26:11;;;;;;;16.70;15.10;;;13.40;99.90;;;;;;5100864;28;20108;-58
2022/09/11 05:28:36;;;;;;;15.98;14.52;;;13.40;99.90;;;;;;5112177;28;20040;-59
2022/09/11 05:31:14;;;;;;;14.03;12.63;;;13.40;99.90;;;;;;5109567;28;20062;-58
2022/09/11 05:33:40;;;;;;;14.98;13.68;;;13.40;99.90;;;;;;5092668;28;20047;-58
2022/09/11 05:36:06;;;;;;;17.20;15.48;;;13.40;99.90;;;;;;5093929;28;20043;-58
2022/09/11 05:38:33;;;;;;;16.23;14.57;;;13.50;99.90;;;;;;5090227;28;20115;-57
2022/09/11 05:40:59;;;;;;;16.63;15.02;;;13.40;99.90;;;;;;5091542;28;20031;-59
2022/09/11 05:43:25;;;;;;;16.77;15.17;;;13.50;99.90;;;;;;5091015;28;20120;-58
2022/09/11 05:45:56;;;;;;;15.93;14.35;;;13.50;99.90;;;;;;5096057;28;20609;-59
2022/09/11 05:48:22;;;;;;;15.77;14.25;;;13.50;99.90;;;;;;5091781;28;20043;-58
2022/09/11 05:50:52;;;;;;;16.42;14.82;;;13.50;99.90;;;;;;5098194;28;20131;-58
2022/09/11 05:53:19;;;;;;;16.40;14.88;;;13.60;99.90;;;;;;5097367;28;20039;-59
2022/09/11 05:55:46;;;;;;;16.70;15.10;;;13.60;99.90;;;;;;5091512;28;20103;-55
2022/09/11 05:58:11;;;;;;;;;;;13.60;99.90;;;;;;5088761;28;20032;-59
2022/09/11 06:00:37;;;;;;;17.50;15.82;;;13.60;99.90;;;;;;5091031;28;19916;-57
2022/09/11 06:03:04;;;;;;;18.23;16.35;;;13.60;99.90;;;;;;5081939;28;20103;-58
2022/09/11 06:05:29;;;;;;;17.45;15.70;;;13.60;99.90;;;;;;5071223;28;20361;-59
2022/09/11 06:07:55;;;;;;;17.27;15.47;;;13.60;99.90;;;;;;5070781;28;20048;-57
2022/09/11 06:10:21;;;;;;;18.02;16.30;;;13.60;99.90;;;;;;5071263;28;20270;-58
2022/09/11 06:12:47;;;;;;;19.17;15.05;;;13.70;99.90;;;;;;5071978;28;20042;-60
2022/09/11 06:15:12;;;;;;;21.50;16.50;;;13.70;99.90;;;;;;5088336;28;20040;-56
2022/09/11 06:17:38;;;;;;;17.98;16.10;;;13.70;99.90;;;;;;5088978;28;20140;-58
2022/09/11 06:20:03;;;;;;;18.25;16.30;;;13.80;99.90;;;;;;5073051;28;20087;-58
2022/09/11 06:22:32;;;;;;;18.13;16.33;;;13.80;99.90;;;;;;5071939;28;20535;-60
2022/09/11 06:24:57;;;;;;;18.42;16.45;;;13.80;99.90;;;;;;5070425;28;20097;-58
2022/09/11 06:27:23;;;;;;;25.58;17.73;;;13.90;99.90;;;;;;5070599;28;20037;-59
2022/09/11 06:29:49;;;;;;;20.85;16.27;;;14.00;99.90;;;;;;5078810;28;20060;-59
2022/09/11 06:32:15;;;;;;;27.45;16.33;;;14.10;99.90;;;;;;5090607;28;20036;-59
2022/09/11 06:34:40;;;;;;;20.52;15.77;;;14.20;99.90;;;;;;5088140;28;20044;-58
2022/09/11 06:37:06;;;;;;;18.60;14.85;;;14.30;99.90;;;;;;5091127;28;20508;-59
2022/09/11 06:39:33;;;;;;;17.38;14.73;;;14.30;99.90;;;;;;5090738;28;20036;-57
2022/09/11 06:41:58;;;;;;;18.15;16.38;;;14.40;99.90;;;;;;5091019;28;20147;-58
2022/09/11 06:44:25;;;;;;;26.90;17.85;;;14.50;99.90;;;;;;5094045;28;20504;-58
2022/09/11 06:46:52;;;;;;;21.90;19.77;;;14.50;99.90;;;;;;5089868;28;20044;-57
2022/09/11 06:49:18;;;;;;;20.55;18.55;;;14.50;99.90;;;;;;5110388;28;20044;-61
2022/09/11 06:51:43;;;;;;;;;;;14.60;99.90;;;;;;5073334;28;20040;-59
2022/09/11 06:54:10;;;;;;;17.77;15.82;;;14.70;99.90;;;;;;5077564;28;19916;-61
2022/09/11 06:56:35;;;;;;;18.08;16.27;;;14.80;99.90;;;;;;5070398;28;20088;-58
2022/09/11 06:59:01;;;;;;;15.23;13.73;;;14.80;99.90;;;;;;5091093;28;20064;-60
2022/09/11 07:01:30;;;;;;;16.17;14.65;;;14.90;99.90;;;;;;5089883;28;20073;-60
2022/09/11 07:03:55;;;;;;;16.35;14.65;;;15.00;99.90;;;;;;5094719;28;20450;-60
2022/09/11 07:06:23;;;;;;;15.88;14.43;;;15.10;99.90;;;;;;5090047;28;20036;-60
2022/09/11 07:08:59;;;;;;;17.35;15.55;;;15.20;99.90;;;;;;5087918;28;20463;-60
2022/09/11 07:11:25;;;;;;;17.67;16.08;;;15.40;99.90;;;;;;5081001;28;20036;-59
2022/09/11 07:13:50;;;;;;;16.45;14.90;;;15.50;99.90;;;;;;5095700;28;20032;-57
2022/09/11 07:16:16;;;;;;;16.65;15.15;;;15.60;99.90;;;;;;5070179;28;20036;-59
2022/09/11 07:18:44;;;;;;;16.55;14.95;;;15.70;99.90;;;;;;5077971;28;20554;-57
2022/09/11 07:21:16;;;;;;;16.73;15.20;;;15.80;99.90;;;;;;5070323;28;20036;-58
2022/09/11 07:23:45;;;;;;;16.30;14.82;;;16.00;99.90;;;;;;5087523;28;20058;-58
2022/09/11 07:26:12;;;;;;;17.58;13.88;;;16.10;99.90;;;;;;5089282;28;20421;-58
2022/09/11 07:28:38;;;;;;;16.45;14.20;;;16.20;99.90;;;;;;5090920;28;20104;-58
2022/09/11 07:31:10;;;;;;;15.85;14.43;;;16.40;99.90;;;;;;5069946;28;20521;-59
2022/09/11 07:33:37;;;;;;;15.95;14.43;;;16.50;99.90;;;;;;5072351;28;20049;-56
2022/09/11 07:36:10;;;;;;;46.03;15.18;;;16.60;99.90;;;;;;5110172;28;20047;-57
2022/09/11 07:38:40;;;;;;;15.32;12.73;;;16.80;99.90;;;;;;5110395;28;20526;-56
2022/09/11 07:41:07;;;;;;;14.93;13.35;;;16.90;99.90;;;;;;5107976;28;20047;-56
2022/09/11 07:43:37;;;;;;;15.82;14.32;;;17.10;99.90;;;;;;5101467;28;20035;-56
2022/09/11 07:46:04;;;;;;;13.57;12.27;;;17.20;99.90;;;;;;5087642;28;20464;-58
2022/09/11 07:48:29;;;;;;;13.88;12.48;;;17.30;99.90;;;;;;5069909;28;20036;-58
2022/09/11 07:51:03;;;;;;;13.20;10.90;;;17.40;99.90;;;;;;5094925;28;20040;-59
2022/09/11 07:53:34;;;;;;;14.63;12.68;;;17.50;99.90;;;;;;5099699;28;20527;-60
2022/09/11 07:56:04;;;;;;;11.88;10.75;;;17.70;99.90;;;;;;5072559;28;20044;-58
2022/09/11 07:58:34;;;;;;;14.07;12.77;;;17.80;99.90;;;;;;5075717;28;20040;-58
2022/09/11 08:01:02;;;;;;;13.68;12.40;;;17.90;99.90;;;;;;5089936;28;20071;-59
2022/09/11 08:03:29;;;;;;;13.43;12.25;;;17.90;99.90;;;;;;5089315;28;20119;-59
2022/09/11 08:05:59;;;;;;;12.85;11.75;;;18.00;99.90;;;;;;5094794;28;20039;-60
2022/09/11 08:08:28;;;;;;;15.13;13.15;;;18.10;99.90;;;;;;5103524;28;20078;-59
2022/09/11 08:11:01;;;;;;;12.63;11.35;;;18.20;99.90;;;;;;5089551;28;20032;-59
2022/09/11 08:13:27;;;;;;;13.43;10.98;;;18.30;99.90;;;;;;5089827;28;20044;-60
2022/09/11 08:15:52;;;;;;;12.85;11.70;;;18.30;99.90;;;;;;5087765;28;20039;-59
2022/09/11 08:18:18;;;;;;;11.65;10.45;;;18.40;99.90;;;;;;5069270;28;20044;-60
2022/09/11 08:20:44;;;;;;;14.25;12.35;;;18.40;99.90;;;;;;5068632;28;20048;-59
2022/09/11 08:23:10;;;;;;;14.40;12.98;;;18.50;99.90;;;;;;5073716;28;20028;-58
2022/09/11 08:25:36;;;;;;;14.88;13.38;;;18.50;99.90;;;;;;5076432;28;20119;-59
2022/09/11 08:28:02;;;;;;;;;;;18.60;99.90;;;;;;5090129;28;20040;-60
2022/09/11 08:30:28;;;;;;;12.77;10.80;;;18.60;99.90;;;;;;5090783;28;19969;-58
2022/09/11 08:32:54;;;;;;;12.68;11.45;;;18.70;99.90;;;;;;5092727;28;20091;-61
2022/09/11 08:35:20;;;;;;;11.75;10.75;;;18.80;99.90;;;;;;5088495;28;20040;-58
2022/09/11 08:37:45;;;;;;;;;;;18.90;99.90;;;;;;5084509;28;20066;-63
2022/09/11 08:40:11;;;;;;;13.95;11.23;;;19.10;99.90;;;;;;5085933;28;20422;-63
2022/09/11 08:42:41;;;;;;;12.15;10.90;;;19.20;99.90;;;;;;5074291;28;20032;-64
2022/09/11 08:45:14;;;;;;;12.18;9.65;;;19.20;99.90;;;;;;5093952;28;20085;-64
2022/09/11 08:47:50;;;;;;;10.77;9.60;;;19.20;99.90;;;;;;5097127;28;20028;-64
2022/09/11 08:50:24;;;;;;;10.13;9.13;;;19.30;99.90;;;;;;5104705;28;20024;-64
2022/09/11 08:52:50;;;;;;;11.68;9.75;;;19.30;99.90;;;;;;5073763;28;20115;-64
2022/09/11 08:55:28;;;;;;;11.82;10.10;;;19.40;99.90;;;;;;5091153;28;20131;-64
2022/09/11 08:58:21;;;;;;;11.70;10.50;;;19.40;99.90;;;;;;5100713;28;20042;-65
2022/09/11 09:01:09;;;;;;;9.90;8.90;;;19.40;99.90;;;;;;5103662;28;20736;-64
2022/09/11 09:03:55;;;;;;;11.05;9.90;;;19.40;99.90;;;;;;5090278;28;20044;-62
2022/09/11 09:06:41;;;;;;;13.95;10.38;;;19.40;99.90;;;;;;5092590;28;20032;-63
2022/09/11 09:09:15;;;;;;;10.88;9.82;;;19.50;99.90;;;;;;5071681;28;20036;-64
2022/09/11 09:11:46;;;;;;;10.50;9.48;;;19.50;99.90;;;;;;5107157;28;20039;-62
2022/09/11 09:14:57;;;;;;;14.60;10.95;;;19.50;99.90;;;;;;5110714;28;20039;-63
2022/09/11 09:17:30;;;;;;;14.30;12.02;;;19.60;99.90;;;;;;5104300;28;20044;-63
2022/09/11 09:20:02;;;;;;;12.50;9.65;;;19.60;99.90;;;;;;5090668;28;20562;-65
2022/09/11 09:22:52;;;;;;;12.25;9.32;;;19.70;99.90;;;;;;5090432;28;20066;-64
2022/09/11 09:25:22;;;;;;;9.77;8.88;;;19.70;99.90;;;;;;5071381;28;20903;-64
2022/09/11 09:27:53;;;;;;;10.43;7.78;;;19.70;99.90;;;;;;5080367;28;20411;-65
2022/09/11 09:30:22;;;;;;;11.70;9.50;;;19.80;99.90;;;;;;5092734;28;20252;-64
2022/09/11 09:33:05;;;;;;;8.98;7.43;;;20.00;99.90;;;;;;5091794;28;20055;-64
2022/09/11 09:35:42;;;;;;;7.65;4.80;;;20.10;99.90;;;;;;5091584;28;20047;-63
2022/09/11 09:38:17;;;;;;;6.72;5.75;;;20.20;99.90;;;;;;5087280;28;20489;-64
2022/09/11 09:41:17;;;;;;;6.70;4.60;;;20.30;99.90;;;;;;5071596;28;20044;-64
2022/09/11 09:43:54;;;;;;;6.25;4.50;;;20.30;99.90;;;;;;5056154;28;20048;-64
2022/09/11 09:46:34;;;;;;;5.78;4.82;;;20.30;99.90;;;;;;5071749;28;20041;-64
2022/09/11 09:49:00;;;;;;;7.72;5.47;;;20.40;99.90;;;;;;5081691;28;20051;-64
2022/09/11 09:51:26;;;;;;;;;;;20.50;99.90;;;;;;5090103;28;20159;-64
2022/09/11 09:53:57;;;;;;;4.70;3.42;;;20.50;99.90;;;;;;5110214;28;19915;-64
2022/09/11 09:56:23;;;;;;;6.60;3.50;;;20.60;99.90;;;;;;5111531;28;20031;-65
2022/09/11 09:58:59;;;;;;;11.15;3.40;;;20.70;99.90;;;;;;5102465;28;20443;-64
2022/09/11 10:01:43;;;;;;;5.78;2.35;;;20.70;99.90;;;;;;5090271;28;20032;-64
2022/09/11 10:04:25;;;;;;;4.28;3.00;;;20.70;99.90;;;;;;5072639;28;20052;-65
2022/09/11 10:07:07;;;;;;;1.77;1.67;;;20.70;99.90;;;;;;5070544;28;20043;-64
2022/09/11 10:09:33;;;;;;;4.75;2.90;;;20.70;99.90;;;;;;5076366;28;20083;-65
2022/09/11 10:12:04;;;;;;;;;;;20.60;99.90;;;;;;5092542;28;20428;-64
2022/09/11 10:14:37;;;;;;;7.45;3.13;;;20.70;99.90;;;;;;5104598;28;20395;-63
2022/09/11 10:17:03;;;;;;;7.35;6.53;;;20.60;99.90;;;;;;5101305;28;20063;-66
2022/09/11 10:19:34;;;;;;;;;;;20.60;99.90;;;;;;5089796;28;20032;-64
2022/09/11 10:22:29;;;;;;;8.82;5.95;;;20.50;99.90;;;;;;5092270;28;19916;-64
2022/09/11 10:25:14;;;;;;;6.15;4.63;;;20.50;99.90;;;;;;5108124;28;20052;-64
2022/09/11 10:28:14;;;;;;;5.32;4.82;;;20.40;99.90;;;;;;5111196;28;20488;-64
2022/09/11 10:30:44;;;;;;;8.93;4.07;;;20.50;99.90;;;;;;5060718;28;20045;-63
2022/09/11 10:33:19;;;;;;;5.70;3.83;;;20.60;99.90;;;;;;5047084;28;20037;-64
2022/09/11 10:35:50;;;;;;;6.40;4.05;;;20.70;99.90;;;;;;5033707;28;20148;-63
2022/09/11 10:38:18;;;;;;;9.73;5.15;;;20.70;99.90;;;;;;5042640;28;20048;-64
2022/09/11 10:40:55;;;;;;;9.25;4.50;;;20.70;99.90;;;;;;5045861;28;20049;-64
2022/09/11 10:43:24;;;;;;;6.70;4.90;;;20.70;99.90;;;;;;5048368;28;20087;-65
2022/09/11 10:46:22;;;;;;;5.97;3.60;;;20.80;99.90;;;;;;5064145;28;20113;-64
2022/09/11 10:48:53;;;;;;;;;;;20.80;99.90;;;;;;5068309;28;20048;-64
2022/09/11 10:51:19;;;;;;;11.02;4.00;;;20.80;99.90;;;;;;5056547;28;20003;-61
2022/09/11 10:54:00;;;;;;;;;;;20.70;99.90;;;;;;5048533;28;20144;-62
2022/09/11 10:56:26;;;;;;;9.23;5.88;;;20.70;99.90;;;;;;5065705;28;20324;-60
2022/09/11 10:59:00;;;;;;;11.43;9.45;;;20.70;99.90;;;;;;5067220;28;20044;-59
2022/09/11 11:01:25;;;;;;;11.90;10.70;;;20.60;99.90;;;;;;5032869;28;20564;-62
2022/09/11 11:03:51;;;;;;;;;;;20.60;99.90;;;;;;5037350;28;20116;-63
2022/09/11 11:06:47;;;;;;;14.13;10.77;;;20.50;99.90;;;;;;5084620;28;20003;-60
2022/09/11 11:09:48;;;;;;;11.40;10.20;;;20.40;99.90;;;;;;5090675;28;20044;-62
2022/09/11 11:12:36;;;;;;;10.65;9.60;;;20.40;99.90;;;;;;5083455;28;20089;-61
2022/09/11 11:15:23;;;;;;;14.95;11.43;;;20.40;99.90;;;;;;5098203;28;20028;-63
2022/09/11 11:18:10;;;;;;;10.55;9.43;;;20.50;99.90;;;;;;5081011;28;20362;-62
2022/09/11 11:20:51;;;;;;;7.35;6.68;;;20.60;99.90;;;;;;5104928;28;20039;-65
2022/09/11 11:23:23;;;;;;;9.48;6.30;;;20.50;99.90;;;;;;5093994;28;20529;-64
2022/09/11 11:26:26;;;;;;;11.18;6.68;;;20.50;99.90;;;;;;5084473;28;20048;-64
2022/09/11 11:29:07;;;;;;;10.30;7.68;;;20.50;99.90;;;;;;5090267;28;20370;-61
2022/09/11 11:32:06;;;;;;;8.98;6.10;;;20.40;99.90;;;;;;5088746;28;20067;-59
2022/09/11 11:34:45;;;;;;;8.82;5.43;;;20.30;99.90;;;;;;5088629;28;20044;-58
2022/09/11 11:37:23;;;;;;;6.30;4.50;;;20.30;99.90;;;;;;5070136;28;20497;-59
2022/09/11 11:40:05;;;;;;;5.22;4.07;;;20.20;99.90;;;;;;5072161;28;20451;-59
2022/09/11 11:42:42;;;;;;;7.10;4.95;;;20.20;99.90;;;;;;5089680;28;20050;-59
2022/09/11 11:45:15;;;;;;;8.10;5.40;;;20.20;99.90;;;;;;5090087;28;20043;-59
2022/09/11 11:47:43;;;;;;;6.95;4.72;;;20.20;99.90;;;;;;5090153;28;20036;-57
2022/09/11 11:50:30;;;;;;;6.95;5.00;;;20.10;99.90;;;;;;5088646;28;20105;-56
2022/09/11 11:53:00;;;;;;;5.13;4.30;;;20.10;99.90;;;;;;5089276;28;20158;-60
2022/09/11 11:55:44;;;;;;;6.53;4.25;;;20.10;99.90;;;;;;5077994;28;20180;-53
2022/09/11 11:58:21;;;;;;;5.80;5.22;;;20.10;99.90;;;;;;5089855;28;20044;-58
2022/09/11 12:01:03;;;;;;;7.95;5.45;;;20.10;99.90;;;;;;5081123;28;20036;-56
2022/09/11 12:03:46;;;;;;;6.95;6.18;;;20.10;99.90;;;;;;5069155;28;20043;-57
2022/09/11 12:06:12;;;;;;;5.93;5.18;;;20.10;99.90;;;;;;5076742;28;20067;-57
2022/09/11 12:08:45;;;;;;;6.88;5.90;;;20.10;99.90;;;;;;5093975;28;20484;-56
2022/09/11 12:11:15;;;;;;;9.27;6.25;;;20.10;99.90;;;;;;5093955;28;20075;-58
2022/09/11 12:13:46;;;;;;;7.45;5.72;;;20.20;99.90;;;;;;5093421;28;20089;-57
2022/09/11 12:16:14;;;;;;;7.22;6.43;;;20.40;99.90;;;;;;5092459;28;20036;-57
2022/09/11 12:18:58;;;;;;;6.55;5.95;;;20.50;99.90;;;;;;5089214;28;20035;-54
2022/09/11 12:21:24;;;;;;;7.35;6.35;;;20.60;99.90;;;;;;5073114;28;20041;-57
2022/09/11 12:23:49;;;;;;;;;;;20.80;99.90;;;;;;5092649;28;20514;-52
2022/09/11 12:26:18;;;;;;;5.15;4.68;;;20.90;99.90;;;;;;5085627;28;20380;-61
2022/09/11 12:28:44;;;;;;;6.03;5.45;;;20.90;99.90;;;;;;5089960;28;20486;-59
2022/09/11 12:31:11;;;;;;;;;;;21.10;99.90;;;;;;5092584;28;20040;-59
2022/09/11 12:33:43;;;;;;;5.45;4.45;;;21.10;99.90;;;;;;5086878;28;19927;-59
2022/09/11 12:36:32;;;;;;;4.50;4.10;;;21.20;99.90;;;;;;5073967;28;20040;-59
2022/09/11 12:38:58;;;;;;;6.18;5.57;;;21.20;99.90;;;;;;5088919;28;20036;-58
2022/09/11 12:41:25;;;;;;;;;;;21.30;99.90;;;;;;5092642;28;20040;-59
2022/09/11 12:43:53;;;;;;;4.55;3.92;;;21.30;99.90;;;;;;5092339;28;20293;-59
2022/09/11 12:46:22;;;;;;;4.20;3.80;;;21.40;99.90;;;;;;5092872;28;20087;-60
2022/09/11 12:48:57;;;;;;;4.65;3.70;;;21.50;99.90;;;;;;5092203;28;20047;-59
2022/09/11 12:51:32;;;;;;;5.32;3.55;;;21.60;99.90;;;;;;5077191;28;20036;-59
2022/09/11 12:54:10;;;;;;;3.38;1.27;;;21.70;99.90;;;;;;5073583;28;20099;-58
2022/09/11 12:56:48;;;;;;;4.45;3.83;;;21.70;99.60;;;;;;5072699;28;20105;-57
2022/09/11 12:59:24;;;;;;;6.28;3.30;;;21.70;99.70;;;;;;5090317;28;20072;-58
2022/09/11 13:01:51;;;;;;;3.60;2.40;;;21.70;99.60;;;;;;5091709;28;20089;-58